createdAt,value
2023-02-15T08:32:48.873Z,99.90
2023-02-15T08:47:50.208Z,99.90
2023-02-15T08:52:43.676Z,99.90
2023-02-15T08:57:38.221Z,99.90
2023-02-15T09:02:32.144Z,99.90
2023-02-15T09:14:31.580Z,99.90
2023-02-15T09:24:46.131Z,99.90
2023-02-15T09:29:40.264Z,99.90
2023-02-15T09:34:35.094Z,99.90
2023-02-15T09:39:29.728Z,99.90
2023-02-15T09:44:35.486Z,99.90
2023-02-15T09:49:38.814Z,99.90
2023-02-15T09:54:52.987Z,99.90
2023-02-15T09:59:59.761Z,99.90
2023-02-15T10:05:08.015Z,99.90
2023-02-15T10:10:16.670Z,99.90
2023-02-15T10:15:29.694Z,99.90
2023-02-15T10:20:31.232Z,99.90
2023-02-15T10:25:37.743Z,99.90
2023-02-15T10:30:42.203Z,99.90
2023-02-15T10:35:49.125Z,99.90
2023-02-15T10:40:52.146Z,99.90
2023-02-15T10:45:58.195Z,99.90
2023-02-15T10:50:53.724Z,99.90
2023-02-15T10:55:57.438Z,99.90
2023-02-15T11:01:02.465Z,99.90
2023-02-15T11:06:05.026Z,99.90
2023-02-15T11:11:03.562Z,99.90
2023-02-15T11:16:02.094Z,99.90
2023-02-15T11:20:58.886Z,99.90
2023-02-15T11:25:58.839Z,99.90
2023-02-15T11:31:00.649Z,99.90
2023-02-15T11:35:59.853Z,99.90
2023-02-15T11:40:57.693Z,99.90
2023-02-15T11:45:51.361Z,98.00
2023-02-15T11:50:47.413Z,97.50
2023-02-15T11:55:41.221Z,96.30
2023-02-15T12:00:38.058Z,94.90
2023-02-15T12:05:32.683Z,94.00
2023-02-15T12:10:30.559Z,93.10
2023-02-15T12:15:36.452Z,91.90
2023-02-15T12:20:34.562Z,91.40
2023-02-15T12:25:35.605Z,90.30
2023-02-15T12:30:35.162Z,90.50
2023-02-15T12:35:32.093Z,89.60
2023-02-15T12:40:31.319Z,89.40
2023-02-15T12:45:29.002Z,88.90
2023-02-15T12:50:34.537Z,89.10
2023-02-15T12:55:31.040Z,88.90
2023-02-15T13:00:33.052Z,87.20
2023-02-15T13:05:32.033Z,86.40
2023-02-15T13:10:29.865Z,86.60
2023-02-15T13:15:33.889Z,86.90
2023-02-15T13:20:28.766Z,86.80
2023-02-15T13:25:25.434Z,85.40
2023-02-15T13:30:27.553Z,83.80
2023-02-15T13:35:24.198Z,82.20
2023-02-15T13:40:24.741Z,82.10
2023-02-15T13:45:39.030Z,80.20
2023-02-15T13:51:06.214Z,79.10
2023-02-15T13:56:08.776Z,77.90
2023-02-15T14:01:11.036Z,76.60
2023-02-15T14:06:38.797Z,74.90
2023-02-15T14:11:40.574Z,73.70
2023-02-15T14:16:47.990Z,72.80
2023-02-15T14:21:54.062Z,73.00
2023-02-15T14:26:55.049Z,73.20
2023-02-15T14:31:52.745Z,72.50
2023-02-15T14:36:48.244Z,71.80
2023-02-15T14:41:46.733Z,72.60
2023-02-15T14:46:48.268Z,74.30
2023-02-15T14:57:27.702Z,74.50
2023-02-15T15:02:25.639Z,76.80
2023-02-15T15:07:23.409Z,77.90
2023-02-15T15:12:41.259Z,85.50
2023-02-15T15:17:58.550Z,91.80
2023-02-15T15:22:52.845Z,94.50
2023-02-15T15:27:57.532Z,95.80
2023-02-15T15:33:01.324Z,97.30
2023-02-15T15:38:13.073Z,98.20
2023-02-15T15:43:45.430Z,99.10
2023-02-15T15:48:40.664Z,99.90
2023-02-15T15:53:43.665Z,99.90
2023-02-15T15:58:43.731Z,99.90
2023-02-15T16:03:40.554Z,99.90
2023-02-15T16:08:36.202Z,99.90
2023-02-15T16:13:30.152Z,99.90
2023-02-15T16:18:28.814Z,99.90
2023-02-15T16:23:52.544Z,99.90
2023-02-15T16:28:51.286Z,99.90
2023-02-15T16:33:47.950Z,99.90
2023-02-15T16:39:13.638Z,99.90
2023-02-15T16:44:14.529Z,99.90
2023-02-15T16:49:18.861Z,99.90
